Time;durP1;ratioP1;P1;durP2;ratioP2;P2;SDS_P1;SDS_P2;PMS_P1;PMS_P2;Temp;Humidity;BMP_temperature;BMP_pressure;BME280_temperature;BME280_humidity;BME280_pressure;Samples;Min_cycle;Max_cycle;Signal;HPM_P1;HPM_P2
2022/08/22 00:01:24;;;;;;;3.87;2.27;;;;;;;18.61;52.11;98492.97;5042158;28;20267;-50
2022/08/22 00:04:09;;;;;;;6.00;2.33;;;;;;;18.64;51.91;98492.53;5039865;28;20226;-53
2022/08/22 00:06:49;;;;;;;5.17;2.77;;;;;;;18.66;51.99;98495.78;5046109;28;20781;-52
2022/08/22 00:09:31;;;;;;;5.77;2.50;;;;;;;18.68;51.80;98485.81;5038185;28;20263;-49
2022/08/22 00:12:11;;;;;;;4.97;2.60;;;;;;;18.70;51.22;98486.44;5043164;28;20650;-50
2022/08/22 00:14:43;;;;;;;4.97;2.30;;;;;;;18.73;50.90;98487.84;5042420;28;20229;-52
2022/08/22 00:17:27;;;;;;;4.03;2.30;;;;;;;18.71;50.77;98487.22;5039298;28;20674;-51
2022/08/22 00:20:01;;;;;;;4.90;2.40;;;;;;;18.68;51.09;98483.19;5041033;28;20260;-52
2022/08/22 00:22:35;;;;;;;5.80;2.60;;;;;;;18.73;52.25;98482.53;5041509;28;20714;-50
2022/08/22 00:25:17;;;;;;;4.27;2.60;;;;;;;18.62;53.22;98483.19;5044983;28;20327;-50
2022/08/22 00:27:51;;;;;;;4.80;2.33;;;;;;;18.53;52.59;98480.78;5043364;28;20700;-50
2022/08/22 00:30:19;;;;;;;3.83;2.20;;;;;;;18.47;53.19;98478.97;5045489;28;20236;-52
2022/08/22 00:32:50;;;;;;;3.43;2.20;;;;;;;18.39;52.78;98477.31;5043063;28;20237;-51
2022/08/22 00:35:23;;;;;;;5.57;2.10;;;;;;;18.40;53.46;98475.50;5044413;28;20237;-50
2022/08/22 00:38:04;;;;;;;2.80;2.30;;;;;;;18.42;54.36;98474.28;5040926;28;20376;-50
2022/08/22 00:40:49;;;;;;;4.27;2.53;;;;;;;18.35;53.41;98476.13;5045477;28;20970;-50
2022/08/22 00:43:48;;;;;;;5.00;2.30;;;;;;;18.36;53.15;98475.09;5038369;28;20233;-51
2022/08/22 00:46:30;;;;;;;3.13;2.20;;;;;;;18.32;53.26;98475.72;5041726;28;20263;-49
2022/08/22 00:49:14;;;;;;;5.53;2.57;;;;;;;18.33;53.73;98472.06;5039584;28;20638;-51
2022/08/22 00:52:03;;;;;;;6.70;2.17;;;;;;;18.25;53.37;98473.06;5040029;28;20236;-49
2022/08/22 00:54:54;;;;;;;5.80;2.40;;;;;;;18.20;53.22;98470.22;5040782;28;20728;-52
2022/08/22 00:57:41;;;;;;;4.17;2.10;;;;;;;18.18;53.55;98472.25;5033550;28;20228;-50
2022/08/22 01:00:13;;;;;;;5.53;2.80;;;;;;;18.17;53.59;98466.19;5040151;28;20277;-50
2022/08/22 01:03:26;;;;;;;6.07;2.30;;;;;;;18.11;53.46;98467.00;5042763;28;20367;-50
2022/08/22 01:06:11;;;;;;;6.60;2.83;;;;;;;18.12;53.80;98464.13;5040245;28;20247;-50
2022/08/22 01:08:53;;;;;;;5.67;2.60;;;;;;;18.06;54.25;98467.59;5042209;28;20267;-50
2022/08/22 01:11:39;;;;;;;7.23;2.40;;;;;;;18.04;54.28;98469.63;5043120;28;20660;-52
2022/08/22 01:14:19;;;;;;;4.67;2.63;;;;;;;18.03;53.32;98469.84;5039936;28;20279;-50
2022/08/22 01:17:08;;;;;;;4.47;2.40;;;;;;;18.09;53.67;98464.53;5041486;28;20238;-51
2022/08/22 01:20:21;;;;;;;4.20;2.40;;;;;;;18.10;54.13;98466.16;5041047;28;20236;-50
2022/08/22 01:23:25;;;;;;;5.93;3.07;;;;;;;18.11;55.95;98461.72;5040055;28;20312;-51
2022/08/22 01:26:38;;;;;;;5.53;2.60;;;;;;;18.12;54.95;98465.97;5039369;28;20314;-50
2022/08/22 01:29:33;;;;;;;6.50;2.83;;;;;;;18.13;54.51;98462.31;4984255;28;20230;-50
2022/08/22 01:32:48;;;;;;;4.30;2.20;;;;;;;18.11;53.98;98464.34;5040694;28;20234;-50
2022/08/22 01:35:40;;;;;;;5.00;2.43;;;;;;;18.06;55.07;98458.88;5043806;28;20775;-50
2022/08/22 01:38:25;;;;;;;5.80;2.37;;;;;;;18.02;55.26;98452.38;5040523;28;20760;-50
2022/08/22 01:41:30;;;;;;;3.20;2.30;;;;;;;17.92;55.89;98456.19;5039082;28;20247;-49
2022/08/22 01:44:24;;;;;;;3.77;2.50;;;;;;;17.80;56.48;98452.53;5012721;28;20224;-50
2022/08/22 01:46:58;;;;;;;5.77;2.70;;;;;;;17.76;55.71;98446.84;5039155;28;20263;-53
2022/08/22 01:49:30;;;;;;;6.10;2.90;;;;;;;17.69;56.47;98446.84;5039786;28;20820;-50
2022/08/22 01:52:05;;;;;;;4.53;2.80;;;;;;;17.59;56.13;98443.75;5041508;28;20334;-49
2022/08/22 01:54:43;;;;;;;5.67;2.57;;;;;;;17.40;55.54;98442.72;5040371;28;20323;-50
2022/08/22 01:57:12;;;;;;;5.40;3.00;;;;;;;17.32;56.63;98440.28;5038783;28;20237;-50
2022/08/22 01:59:41;;;;;;;5.70;2.83;;;;;;;17.26;56.88;98440.06;5041112;28;20315;-52
2022/08/22 02:02:30;;;;;;;4.83;2.47;;;;;;;17.21;56.45;98437.19;5049679;28;20249;-50
2022/08/22 02:05:06;;;;;;;6.27;3.23;;;;;;;17.13;56.61;98444.50;5048533;28;20705;-50
2022/08/22 02:07:47;;;;;;;4.33;2.73;;;;;;;17.05;56.38;98437.53;5050049;28;20265;-50
2022/08/22 02:10:20;;;;;;;7.63;2.83;;;;;;;17.00;56.83;98443.44;5042736;28;20239;-51
2022/08/22 02:13:00;;;;;;;6.57;2.83;;;;;;;16.91;57.53;98444.56;5047293;28;20241;-51
2022/08/22 02:15:43;;;;;;;4.50;2.50;;;;;;;16.85;57.78;98435.63;5045264;28;20264;-50
2022/08/22 02:18:19;;;;;;;4.10;2.60;;;;;;;16.89;57.10;98433.41;5043528;28;20234;-51
2022/08/22 02:21:03;;;;;;;5.67;2.40;;;;;;;16.78;56.76;98443.50;5043631;28;20258;-50
2022/08/22 02:23:44;;;;;;;4.00;2.30;;;;;;;16.81;55.90;98437.03;5043610;28;20231;-50
2022/08/22 02:26:16;;;;;;;7.03;2.60;;;;;;;16.73;56.32;98437.19;5041374;28;20216;-50
2022/08/22 02:28:56;;;;;;;3.97;2.33;;;;;;;16.61;56.02;98435.13;5042267;28;20317;-52
2022/08/22 02:31:32;;;;;;;6.57;2.70;;;;;;;16.52;56.90;98439.72;5042434;28;20778;-50
2022/08/22 02:34:03;;;;;;;6.50;2.83;;;;;;;16.50;56.34;98433.03;5044509;28;20229;-53
2022/08/22 02:36:40;;;;;;;5.63;2.60;;;;;;;16.44;56.69;98436.44;5042102;28;20324;-50
2022/08/22 02:39:20;;;;;;;4.27;2.40;;;;;;;16.40;56.54;98432.56;5042287;28;20369;-51
2022/08/22 02:42:01;;;;;;;4.33;3.20;;;;;;;16.31;57.14;98426.63;5041082;28;20242;-51
2022/08/22 02:44:33;;;;;;;5.13;2.70;;;;;;;16.28;58.08;98425.19;5041078;28;20231;-50
2022/08/22 02:47:08;;;;;;;5.30;2.40;;;;;;;16.21;57.64;98422.53;5042547;28;20231;-51
2022/08/22 02:49:44;;;;;;;4.83;2.40;;;;;;;16.20;57.17;98410.34;5040427;28;20232;-51
2022/08/22 02:52:17;;;;;;;3.67;2.50;;;;;;;16.16;57.83;98410.91;5039433;28;20230;-50
2022/08/22 02:55:00;;;;;;;7.20;2.57;;;;;;;16.06;58.18;98412.06;5038603;28;20231;-49
2022/08/22 02:57:34;;;;;;;4.07;2.60;;;;;;;16.05;57.88;98412.28;5044062;28;20321;-51
2022/08/22 03:00:12;;;;;;;7.20;2.90;;;;;;;15.96;58.40;98413.41;5040993;28;20292;-50
2022/08/22 03:02:46;;;;;;;6.43;2.90;;;;;;;15.92;58.15;98412.97;5042207;28;20328;-50
2022/08/22 03:05:23;;;;;;;4.83;2.63;;;;;;;15.90;58.05;98418.44;5044755;28;20236;-52
2022/08/22 03:07:59;;;;;;;4.47;2.67;;;;;;;15.86;58.33;98413.72;5045006;28;20234;-50
2022/08/22 03:10:34;;;;;;;5.83;2.53;;;;;;;15.76;57.90;98416.66;5044967;28;20332;-50
2022/08/22 03:13:09;;;;;;;5.90;2.70;;;;;;;15.70;58.23;98423.53;5040384;28;20230;-50
2022/08/22 03:15:42;;;;;;;4.07;2.37;;;;;;;15.75;58.20;98423.75;5040658;28;20692;-50
2022/08/22 03:18:21;;;;;;;4.53;2.80;;;;;;;15.67;59.06;98420.44;5042802;28;20224;-50
2022/08/22 03:20:54;;;;;;;5.13;3.07;;;;;;;15.61;59.44;98422.00;5038355;28;20322;-50
2022/08/22 03:23:30;;;;;;;6.07;2.90;;;;;;;15.57;58.49;98418.13;5041710;28;20226;-50
2022/08/22 03:26:05;;;;;;;6.63;2.70;;;;;;;15.48;58.49;98413.00;5043144;28;20565;-50
2022/08/22 03:28:38;;;;;;;4.60;2.40;;;;;;;15.41;58.98;98412.13;5041484;28;20235;-49
2022/08/22 03:31:28;;;;;;;6.50;2.90;;;;;;;15.39;60.07;98410.66;5040810;28;20234;-50
2022/08/22 03:34:20;;;;;;;5.40;2.60;;;;;;;15.36;58.80;98414.50;5039193;28;20242;-51
2022/08/22 03:36:58;;;;;;;4.97;2.77;;;;;;;15.32;58.80;98407.97;5039968;28;20694;-50
2022/08/22 03:39:46;;;;;;;6.43;3.13;;;;;;;15.32;58.18;98408.81;5041569;28;20241;-50
2022/08/22 03:42:59;;;;;;;8.87;2.80;;;;;;;15.32;58.89;98407.97;5041020;28;20265;-50
2022/08/22 03:46:10;;;;;;;4.23;2.60;;;;;;;15.31;58.91;98403.72;5001308;28;20319;-50
2022/08/22 03:49:17;;;;;;;4.23;2.50;;;;;;;15.37;58.75;98410.06;5025783;28;20238;-51
2022/08/22 03:52:01;;;;;;;5.03;2.60;;;;;;;15.37;59.62;98410.06;5033351;28;20242;-50
2022/08/22 03:54:51;;;;;;;3.43;2.53;;;;;;;15.38;59.06;98411.66;5018755;28;20553;-51
2022/08/22 03:57:39;;;;;;;3.30;2.50;;;;;;;15.30;58.80;98402.91;5023208;28;20243;-50
2022/08/22 04:00:45;;;;;;;4.77;2.80;;;;;;;15.41;59.08;98414.75;5025934;28;20236;-50
2022/08/22 04:03:34;;;;;;;6.57;2.70;;;;;;;15.30;58.56;98418.69;5008310;28;20374;-50
2022/08/22 04:06:43;;;;;;;7.80;3.10;;;;;;;15.29;57.50;98413.59;5033491;28;20234;-50
2022/08/22 04:10:12;;;;;;;5.13;3.07;;;;;;;15.26;59.73;98438.47;5010857;28;20283;-51
2022/08/22 04:12:58;;;;;;;6.33;2.97;;;;;;;15.27;59.88;98432.22;4954369;28;20243;-51
2022/08/22 04:15:39;;;;;;;4.47;2.63;;;;;;;15.19;60.37;98443.63;5038461;28;20330;-50
2022/08/22 04:18:35;;;;;;;6.20;3.00;;;;;;;15.20;60.57;98452.34;5041617;28;20237;-53
2022/08/22 04:21:18;;;;;;;4.50;3.07;;;;;;;15.10;60.93;98447.38;5036127;28;20679;-51
2022/08/22 04:24:01;;;;;;;5.93;3.10;;;;;;;15.03;61.63;98451.75;5042986;28;20236;-50
2022/08/22 04:26:40;;;;;;;6.07;3.17;;;;;;;15.05;61.81;98452.38;5041794;28;20701;-50
2022/08/22 04:29:16;;;;;;;6.60;3.30;;;;;;;15.00;62.43;98447.69;5042521;28;20245;-52
2022/08/22 04:31:49;;;;;;;8.13;2.87;;;;;;;14.97;62.44;98445.41;5040120;28;20230;-50
2022/08/22 04:34:25;;;;;;;5.33;2.93;;;;;;;14.94;63.34;98450.22;5043360;28;20288;-50
2022/08/22 04:36:59;;;;;;;3.40;2.73;;;;;;;14.89;64.24;98456.03;5043354;28;20769;-50
2022/08/22 04:39:34;;;;;;;6.57;3.53;;;;;;;14.87;65.38;98453.56;5044756;28;20235;-52
2022/08/22 04:42:05;;;;;;;6.30;3.43;;;;;;;14.88;65.83;98447.31;5039443;28;20675;-51
2022/08/22 04:44:38;;;;;;;5.20;3.47;;;;;;;14.83;66.01;98446.25;5042660;28;20265;-50
2022/08/22 04:47:13;;;;;;;8.73;3.27;;;;;;;14.81;67.18;98440.34;5039290;28;20322;-51
2022/08/22 04:49:44;;;;;;;7.50;3.53;;;;;;;14.81;67.04;98446.44;5043349;28;20662;-50
2022/08/22 04:52:24;;;;;;;6.27;3.63;;;;;;;14.79;66.85;98443.19;5039354;28;20236;-50
2022/08/22 04:55:00;;;;;;;8.37;4.30;;;;;;;14.79;67.18;98450.22;5043905;28;20323;-50
2022/08/22 04:57:36;;;;;;;5.47;3.13;;;;;;;14.75;66.76;98440.09;5038643;28;20336;-50
2022/08/22 05:00:08;;;;;;;6.83;3.20;;;;;;;14.76;66.63;98448.81;5042174;28;20248;-51
2022/08/22 05:02:38;;;;;;;5.10;2.97;;;;;;;14.75;66.19;98452.44;5043372;28;20705;-50
2022/08/22 05:05:10;;;;;;;5.20;3.57;;;;;;;14.81;65.84;98451.69;5036567;28;20239;-50
2022/08/22 05:07:43;;;;;;;7.30;3.30;;;;;;;14.86;66.50;98454.56;5039957;28;20817;-50
2022/08/22 05:10:16;;;;;;;4.60;3.20;;;;;;;14.85;65.72;98455.56;5041554;28;20242;-51
2022/08/22 05:12:49;;;;;;;6.37;3.20;;;;;;;14.81;66.00;98458.75;5043641;28;20242;-50
2022/08/22 05:15:20;;;;;;;7.20;3.10;;;;;;;14.82;65.42;98461.22;5038694;28;20245;-51
2022/08/22 05:17:50;;;;;;;5.50;3.10;;;;;;;14.81;65.84;98466.63;5041020;28;20302;-51
2022/08/22 05:20:24;;;;;;;7.67;3.33;;;;;;;14.80;66.52;98462.38;5043146;28;20309;-50
2022/08/22 05:22:58;;;;;;;5.57;3.00;;;;;;;14.79;66.61;98463.38;5040776;28;20261;-51
2022/08/22 05:25:28;;;;;;;4.20;3.03;;;;;;;14.77;66.81;98460.94;5043087;28;20223;-50
2022/08/22 05:28:06;;;;;;;6.47;3.30;;;;;;;14.82;66.72;98461.22;5041402;28;20236;-50
2022/08/22 05:30:35;;;;;;;6.77;3.50;;;;;;;14.87;66.88;98460.66;5039405;28;20322;-52
2022/08/22 05:33:16;;;;;;;5.90;2.97;;;;;;;14.84;66.48;98459.19;5042289;28;20225;-53
2022/08/22 05:35:47;;;;;;;4.23;3.13;;;;;;;14.94;67.96;98458.94;5046230;28;20325;-51
2022/08/22 05:38:21;;;;;;;5.30;3.27;;;;;;;14.94;67.74;98458.09;5042126;28;20231;-52
2022/08/22 05:40:54;;;;;;;6.77;3.20;;;;;;;14.96;67.23;98453.47;5041848;28;20285;-50
2022/08/22 05:43:22;;;;;;;4.90;3.03;;;;;;;15.00;66.89;98455.56;5042966;28;20679;-51
2022/08/22 05:45:48;;;;;;;7.03;3.40;;;;;;;15.06;66.88;98456.63;5042595;28;20315;-50
2022/08/22 05:48:19;;;;;;;6.10;3.40;;;;;;;15.13;66.45;98451.47;5044065;28;20226;-50
2022/08/22 05:50:49;;;;;;;5.40;3.47;;;;;;;15.12;66.59;98450.63;5045023;28;20234;-51
2022/08/22 05:53:36;;;;;;;7.97;3.40;;;;;;;15.16;66.52;98451.09;5045370;28;20690;-50
2022/08/22 05:56:07;;;;;;;8.03;3.13;;;;;;;15.17;67.30;98458.78;5044115;28;20231;-50
2022/08/22 05:58:46;;;;;;;4.90;3.33;;;;;;;15.17;66.73;98457.97;5044517;28;20254;-51
2022/08/22 06:01:26;;;;;;;5.60;3.33;;;;;;;15.17;66.11;98458.78;5043726;28;20241;-50
2022/08/22 06:04:14;;;;;;;4.57;3.20;;;;;;;15.18;66.07;98463.03;5045730;28;20231;-53
2022/08/22 06:06:46;;;;;;;5.23;3.30;;;;;;;15.22;66.70;98468.75;5042882;28;20227;-50
2022/08/22 06:09:21;;;;;;;7.70;3.33;;;;;;;15.29;66.07;98455.69;5043043;28;20231;-50
2022/08/22 06:11:56;;;;;;;5.00;2.80;;;;;;;15.37;65.74;98466.09;5042174;28;20242;-50
2022/08/22 06:14:30;;;;;;;5.77;3.27;;;;;;;15.43;65.08;98473.25;5045531;28;20231;-50
2022/08/22 06:17:05;;;;;;;6.87;3.67;;;;;;;15.50;65.50;98474.13;5042293;28;20588;-51
2022/08/22 06:19:35;;;;;;;4.73;3.30;;;;;;;15.59;65.14;98479.28;5043165;28;20563;-50
2022/08/22 06:22:03;;;;;;;5.60;2.80;;;;;;;15.70;64.40;98478.78;5041442;28;20925;-51
2022/08/22 06:24:52;;;;;;;7.90;3.40;;;;;;;15.74;64.35;98484.47;5041690;28;20356;-50
2022/08/22 06:27:22;;;;;;;6.17;3.20;;;;;;;15.79;63.59;98487.34;5044076;28;20227;-51
2022/08/22 06:29:53;;;;;;;6.63;3.40;;;;;;;15.85;63.06;98485.78;5043778;28;20896;-51
2022/08/22 06:32:24;;;;;;;7.20;3.63;;;;;;;15.96;62.30;98481.84;5042209;28;20236;-50
2022/08/22 06:34:54;;;;;;;5.80;3.10;;;;;;;16.12;61.66;98493.94;5046429;28;20324;-50
2022/08/22 06:37:30;;;;;;;6.30;3.43;;;;;;;16.27;61.22;98493.88;5045942;28;21226;-50
2022/08/22 06:40:02;;;;;;;9.70;3.67;;;;;;;16.41;62.42;98500.88;5045050;28;20225;-51
2022/08/22 06:42:31;;;;;;;9.73;3.47;;;;;;;16.58;61.85;98505.81;5041894;28;20310;-50
2022/08/22 06:45:02;;;;;;;6.87;3.23;;;;;;;16.75;61.10;98511.63;5039586;28;20593;-52
2022/08/22 06:47:32;;;;;;;6.17;3.13;;;;;;;16.94;60.28;98510.09;5042222;28;20265;-51
2022/08/22 06:50:02;;;;;;;10.87;3.40;;;;;;;17.17;59.87;98512.44;5045823;28;20696;-52
2022/08/22 06:52:33;;;;;;;5.87;3.57;;;;;;;17.34;59.91;98512.94;5042240;28;20267;-50
2022/08/22 06:55:08;;;;;;;5.10;3.50;;;;;;;17.54;60.02;98510.34;5044279;28;20255;-50
2022/08/22 06:57:42;;;;;;;7.27;3.47;;;;;;;17.71;59.89;98505.50;5040910;28;20237;-50
2022/08/22 07:00:13;;;;;;;7.27;3.70;;;;;;;17.89;59.16;98512.03;5043914;28;20252;-51
2022/08/22 07:02:43;;;;;;;9.27;3.47;;;;;;;18.05;58.45;98516.16;5040032;28;20240;-50
2022/08/22 07:05:16;;;;;;;10.23;3.93;;;;;;;18.21;57.87;98525.53;5044013;28;20280;-50
2022/08/22 07:07:43;;;;;;;7.87;3.90;;;;;;;18.31;58.19;98533.03;5041218;28;20224;-51
2022/08/22 07:10:14;;;;;;;7.80;3.80;;;;;;;18.41;58.00;98536.06;5042368;28;20280;-50
2022/08/22 07:12:45;;;;;;;5.93;4.00;;;;;;;18.54;58.30;98526.50;5044972;28;20635;-51
2022/08/22 07:15:19;;;;;;;5.60;3.70;;;;;;;18.66;58.14;98529.34;5043043;28;20323;-52
2022/08/22 07:17:49;;;;;;;7.13;3.73;;;;;;;18.75;57.89;98538.69;5043838;28;20327;-50
2022/08/22 07:20:23;;;;;;;6.40;3.77;;;;;;;18.89;58.04;98537.63;5043603;28;20235;-50
2022/08/22 07:22:57;;;;;;;9.80;3.80;;;;;;;18.95;57.32;98537.81;5039750;28;20229;-51
2022/08/22 07:25:25;;;;;;;6.10;3.90;;;;;;;19.08;57.19;98543.13;5045453;28;20687;-50
2022/08/22 07:28:12;;;;;;;5.47;3.50;;;;;;;19.22;56.68;98535.94;5042448;28;20266;-51
2022/08/22 07:30:50;;;;;;;6.83;3.67;;;;;;;19.27;56.88;98544.06;5041688;28;20590;-50
2022/08/22 07:33:42;;;;;;;6.93;3.60;;;;;;;19.25;57.45;98540.00;5039540;28;20320;-51
2022/08/22 07:36:28;;;;;;;7.00;3.70;;;;;;;19.39;57.11;98538.09;5041464;28;20238;-50
2022/08/22 07:39:13;;;;;;;5.70;3.60;;;;;;;19.45;57.07;98545.22;5042710;28;20288;-50
2022/08/22 07:41:53;;;;;;;7.77;3.73;;;;;;;19.51;57.61;98544.38;5040903;28;20233;-50
2022/08/22 07:44:25;;;;;;;8.13;3.73;;;;;;;19.62;56.77;98546.34;5042926;28;20240;-50
2022/08/22 07:46:59;;;;;;;6.43;4.50;;;;;;;19.74;55.51;98548.31;5032770;28;20286;-51
2022/08/22 07:49:30;;;;;;;8.53;4.17;;;;;;;19.83;55.12;98541.75;5022322;28;20233;-51
2022/08/22 07:52:01;;;;;;;7.07;4.13;;;;;;;19.98;54.85;98545.97;5020887;28;20234;-53
2022/08/22 07:54:37;;;;;;;8.07;4.27;;;;;;;20.09;54.96;98547.94;5020953;28;20225;-50
2022/08/22 07:57:09;;;;;;;8.23;3.97;;;;;;;20.21;55.04;98548.84;5022293;28;20302;-51
2022/08/22 07:59:38;;;;;;;6.87;3.63;;;;;;;20.38;54.35;98542.22;5029986;28;20239;-51
2022/08/22 08:02:11;;;;;;;5.33;3.83;;;;;;;20.49;53.59;98546.81;5031826;28;20253;-51
2022/08/22 08:04:40;;;;;;;7.17;3.80;;;;;;;20.54;53.39;98539.00;5041807;28;20232;-51
2022/08/22 08:07:09;;;;;;;9.20;4.00;;;;;;;20.67;52.53;98546.03;5041178;28;20608;-50
2022/08/22 08:09:43;;;;;;;7.53;4.03;;;;;;;20.67;52.16;98547.88;5042565;28;20228;-52
2022/08/22 08:12:12;;;;;;;7.20;3.90;;;;;;;20.62;51.79;98543.22;5040887;28;20231;-51
2022/08/22 08:14:42;;;;;;;7.27;3.97;;;;;;;20.70;52.67;98542.09;5039736;28;20237;-50
2022/08/22 08:17:16;;;;;;;7.77;3.90;;;;;;;20.76;52.63;98550.03;5032632;28;20603;-53
2022/08/22 08:19:46;;;;;;;9.57;4.33;;;;;;;20.91;52.05;98551.53;5035763;28;20705;-50
2022/08/22 08:22:16;;;;;;;5.90;3.63;;;;;;;20.88;51.78;98549.31;5021291;28;20246;-50
2022/08/22 08:24:44;;;;;;;5.37;3.83;;;;;;;21.06;52.17;98551.16;5020121;28;20260;-51
2022/08/22 08:30:05;;;;;;;6.23;4.00;;;;;;;21.25;51.61;98541.34;5021595;28;20240;-51
2022/08/22 08:32:55;;;;;;;7.07;3.37;;;;;;;21.29;51.81;98542.53;5028682;28;20306;-50
2022/08/22 08:35:25;;;;;;;5.37;3.80;;;;;;;21.37;51.13;98552.84;5026025;28;20421;-50
2022/08/22 08:37:57;;;;;;;6.23;3.77;;;;;;;21.33;51.74;98546.34;5023472;28;20316;-52
2022/08/22 08:40:57;;;;;;;7.10;3.77;;;;;;;21.47;51.84;98548.84;5025351;28;20322;-53
2022/08/22 08:43:38;;;;;;;6.63;3.67;;;;;;;21.50;51.50;98551.06;5021814;28;20300;-52
2022/08/22 08:46:37;;;;;;;6.53;3.90;;;;;;;21.46;51.45;98545.38;5020165;28;20271;-51
2022/08/22 08:49:24;;;;;;;7.70;3.70;;;;;;;21.60;50.85;98540.72;5022506;28;20687;-50
2022/08/22 08:52:10;;;;;;;6.90;3.57;;;;;;;21.75;50.94;98544.84;5021770;28;20574;-50
2022/08/22 08:55:07;;;;;;;5.27;3.97;;;;;;;21.87;50.41;98540.38;5021649;28;20257;-51
2022/08/22 08:57:57;;;;;;;5.50;3.40;;;;;;;22.04;49.85;98529.09;5007800;28;20239;-51
2022/08/22 09:00:49;;;;;;;9.87;3.87;;;;;;;22.13;49.56;98530.38;5025322;28;20361;-52
2022/08/22 09:03:35;;;;;;;8.27;4.00;;;;;;;22.17;49.20;98536.84;5016852;28;20329;-51
2022/08/22 09:06:23;;;;;;;8.47;4.03;;;;;;;22.23;48.91;98540.44;5019000;28;20232;-50
2022/08/22 09:09:02;;;;;;;8.27;3.60;;;;;;;22.37;48.43;98538.34;5021943;28;20228;-53
2022/08/22 09:11:56;;;;;;;7.90;3.73;;;;;;;22.36;47.85;98540.22;5023769;28;20751;-54
2022/08/22 09:15:00;;;;;;;7.87;3.50;;;;;;;22.55;47.00;98543.59;5028014;28;20236;-53
2022/08/22 09:17:45;;;;;;;7.77;3.87;;;;;;;22.65;46.22;98547.53;5041716;28;20236;-53
2022/08/22 09:20:33;;;;;;;6.07;3.73;;;;;;;22.77;46.69;98540.38;5046929;28;20287;-52
2022/08/22 09:23:32;;;;;;;6.57;3.80;;;;;;;22.76;45.83;98543.28;5015058;28;20238;-51
2022/08/22 09:26:03;;;;;;;4.63;3.30;;;;;;;22.79;45.73;98545.47;5045119;28;20630;-51
2022/08/22 09:28:37;;;;;;;5.40;3.67;;;;;;;22.84;45.06;98543.72;5045370;28;20230;-50
2022/08/22 09:31:23;;;;;;;4.67;3.27;;;;;;;23.01;44.96;98548.31;5040695;28;20740;-52
2022/08/22 09:33:58;;;;;;;5.90;3.43;;;;;;;22.81;45.70;98552.16;5035892;28;20264;-53
2022/08/22 09:36:34;;;;;;;9.50;3.73;;;;;;;22.62;44.89;98548.81;5024276;28;20234;-51
2022/08/22 09:39:12;;;;;;;6.97;3.53;;;;;;;22.64;45.72;98544.09;5026915;28;20302;-52
2022/08/22 09:41:44;;;;;;;6.23;3.63;;;;;;;22.46;45.63;98552.16;5023025;28;20249;-52
2022/08/22 09:44:17;;;;;;;6.00;3.57;;;;;;;22.40;46.25;98548.53;5031735;28;20688;-50
2022/08/22 09:46:57;;;;;;;10.30;3.83;;;;;;;22.38;46.23;98542.63;5022582;28;20217;-53
2022/08/22 09:49:43;;;;;;;7.73;3.40;;;;;;;22.40;46.95;98546.69;5024800;28;20226;-50
2022/08/22 09:52:23;;;;;;;9.23;3.73;;;;;;;22.40;47.36;98538.72;5040621;28;20302;-51
2022/08/22 09:54:56;;;;;;;7.00;3.67;;;;;;;22.44;46.26;98544.41;5045996;28;20684;-50
2022/08/22 09:57:35;;;;;;;7.90;3.77;;;;;;;22.80;46.19;98534.56;5043922;28;20724;-50
2022/08/22 10:00:19;;;;;;;7.33;3.67;;;;;;;23.13;46.19;98543.78;5045914;28;20256;-52
2022/08/22 10:02:56;;;;;;;8.43;3.40;;;;;;;23.43;45.65;98550.78;5021427;28;20238;-51
2022/08/22 10:05:29;;;;;;;8.47;4.00;;;;;;;23.51;45.21;98546.13;5022105;28;20247;-52
2022/08/22 10:08:07;;;;;;;5.17;3.43;;;;;;;23.75;44.67;98546.84;5022734;28;20321;-51
2022/08/22 10:10:53;;;;;;;7.97;4.30;;;;;;;23.99;43.43;98547.56;5023906;28;20238;-50
2022/08/22 10:13:34;;;;;;;6.37;3.63;;;;;;;24.07;43.45;98541.00;5023451;28;20655;-51
2022/08/22 10:16:14;;;;;;;7.00;3.50;;;;;;;24.09;43.29;98549.56;5023902;28;20239;-50
2022/08/22 10:18:52;;;;;;;7.07;3.50;;;;;;;24.21;43.62;98540.69;5021363;28;20315;-50
2022/08/22 10:21:30;;;;;;;3.97;3.20;;;;;;;24.28;42.33;98541.34;5024208;28;20231;-51
2022/08/22 10:24:01;;;;;;;6.73;3.13;;;;;;;24.43;42.50;98540.75;5041479;28;20250;-51
2022/08/22 10:26:50;;;;;;;7.37;3.50;;;;;;;24.47;41.29;98537.38;5043115;28;20277;-51
2022/08/22 10:29:51;;;;;;;4.47;3.37;;;;;;;24.49;41.60;98530.97;5043837;28;20292;-51
2022/08/22 10:32:29;;;;;;;8.00;3.80;;;;;;;24.55;41.82;98528.13;5044553;28;20238;-51
2022/08/22 10:35:02;;;;;;;7.60;3.33;;;;;;;24.47;41.81;98531.22;5043456;28;20223;-50
2022/08/22 10:37:37;;;;;;;6.77;3.50;;;;;;;24.30;41.33;98529.38;5043894;28;20241;-53
2022/08/22 10:40:10;;;;;;;5.20;3.80;;;;;;;24.25;41.31;98525.81;5045676;28;20233;-51
2022/08/22 10:42:41;;;;;;;6.50;3.53;;;;;;;24.21;41.40;98519.34;5042418;28;20230;-54
2022/08/22 10:45:26;;;;;;;8.97;3.43;;;;;;;24.09;42.18;98514.13;5045327;28;20314;-53
2022/08/22 10:48:29;;;;;;;10.17;3.70;;;;;;;24.09;42.38;98519.44;5039826;28;20255;-50
2022/08/22 10:51:16;;;;;;;5.87;3.50;;;;;;;24.30;42.74;98513.38;5045546;28;20320;-52
2022/08/22 10:54:13;;;;;;;5.63;3.50;;;;;;;24.64;41.42;98501.84;5036046;28;20260;-52
2022/08/22 10:56:47;;;;;;;4.90;3.53;;;;;;;24.98;40.75;98496.41;5042140;28;20227;-51
2022/08/22 10:59:28;;;;;;;4.60;3.40;;;;;;;25.28;39.76;98507.72;5040948;28;20275;-53
2022/08/22 11:02:07;;;;;;;6.97;3.70;;;;;;;25.55;39.57;98509.59;5046150;28;20233;-52
2022/08/22 11:05:13;;;;;;;5.37;3.40;;;;;;;25.67;38.20;98509.47;5044982;28;20238;-53
2022/08/22 11:07:48;;;;;;;8.07;3.60;;;;;;;25.59;38.38;98500.84;5040101;28;20657;-53
2022/08/22 11:10:26;;;;;;;5.43;3.60;;;;;;;25.67;38.67;98507.59;5044615;28;20238;-52
2022/08/22 11:13:10;;;;;;;6.33;3.43;;;;;;;25.81;37.40;98502.66;5045036;28;20990;-52
2022/08/22 11:16:07;;;;;;;5.30;3.47;;;;;;;25.78;38.82;98503.94;5043543;28;20684;-51
2022/08/22 11:19:02;;;;;;;6.20;3.60;;;;;;;25.89;38.23;98493.34;5027565;28;20255;-53
2022/08/22 11:21:41;;;;;;;5.43;3.37;;;;;;;26.08;36.72;98486.56;5041086;28;20232;-51
2022/08/22 11:24:19;;;;;;;5.83;3.33;;;;;;;26.22;36.29;98480.78;5042738;28;20233;-52
2022/08/22 11:26:59;;;;;;;6.23;3.30;;;;;;;26.30;35.41;98479.50;5042150;28;20578;-50
2022/08/22 11:29:39;;;;;;;5.13;2.80;;;;;;;26.37;34.99;98475.53;5043503;28;20260;-51
2022/08/22 11:32:15;;;;;;;4.80;2.87;;;;;;;26.50;34.39;98481.50;5039998;28;20261;-51
2022/08/22 11:34:53;;;;;;;4.80;3.00;;;;;;;26.44;34.24;98475.31;5042269;28;20226;-51
2022/08/22 11:37:38;;;;;;;7.13;2.77;;;;;;;26.15;33.85;98480.22;5041525;28;20229;-51
2022/08/22 11:40:19;;;;;;;4.50;2.80;;;;;;;26.19;32.53;98467.94;5039715;28;20243;-54
2022/08/22 11:42:56;;;;;;;4.00;2.57;;;;;;;26.33;31.80;98461.06;5043486;28;20233;-50
2022/08/22 11:45:37;;;;;;;3.83;2.80;;;;;;;26.57;31.33;98462.53;5039937;28;20298;-50
2022/08/22 11:48:10;;;;;;;6.40;2.90;;;;;;;26.90;31.85;98458.69;5041507;28;20244;-52
2022/08/22 11:50:43;;;;;;;6.43;3.50;;;;;;;27.05;31.57;98449.06;5038704;28;20255;-51
2022/08/22 11:53:18;;;;;;;7.13;2.80;;;;;;;27.35;31.98;98451.00;5040377;28;20270;-51
2022/08/22 11:55:55;;;;;;;9.67;3.50;;;;;;;27.51;31.88;98449.19;5040772;28;20329;-52
2022/08/22 11:58:39;;;;;;;6.40;3.07;;;;;;;27.55;32.01;98452.97;5040920;28;20241;-54
2022/08/22 12:01:14;;;;;;;6.27;3.10;;;;;;;27.71;30.31;98458.31;5040804;28;20268;-51
2022/08/22 12:04:01;;;;;;;5.53;3.33;;;;;;;27.63;31.03;98453.47;5043020;28;20246;-54
2022/08/22 12:06:57;;;;;;;4.75;3.50;;;;;;;27.60;31.66;98454.81;5042509;28;20284;-51
2022/08/22 12:09:31;;;;;;;5.00;2.80;;;;;;;27.76;31.14;98450.25;5026064;28;20234;-53
2022/08/22 12:12:22;;;;;;;4.13;3.43;;;;;;;28.01;31.89;98442.50;5040332;28;20233;-50
2022/08/22 12:14:57;;;;;;;5.70;3.28;;;;;;;27.88;30.98;98450.00;5034347;28;20229;-51
2022/08/22 12:18:00;;;;;;;6.60;3.60;;;;;;;28.08;29.94;98443.00;5039851;28;20343;-51
2022/08/22 12:20:54;;;;;;;6.10;3.25;;;;;;;28.49;30.77;98442.94;5039214;28;20219;-51
2022/08/22 12:23:49;;;;;;;4.93;3.33;;;;;;;28.92;30.67;98441.72;5043510;28;20232;-51
2022/08/22 12:26:27;;;;;;;4.53;3.00;;;;;;;29.35;29.63;98436.59;5039213;28;20633;-51
2022/08/22 12:29:07;;;;;;;5.10;3.22;;;;;;;29.73;29.98;98439.56;5040307;28;20228;-53
2022/08/22 12:32:00;;;;;;;6.03;3.20;;;;;;;29.09;28.76;98420.66;5044211;28;20225;-52
2022/08/22 12:34:35;;;;;;;8.88;3.40;;;;;;;28.89;28.95;98429.63;5042148;28;20704;-51
2022/08/22 12:37:10;;;;;;;4.68;2.90;;;;;;;29.00;28.46;98431.19;5041422;28;20256;-52